Time;durP1;ratioP1;P1;durP2;ratioP2;P2;SDS_P1;SDS_P2;PMS_P1;PMS_P2;Temp;Humidity;BMP_temperature;BMP_pressure;BME280_temperature;BME280_humidity;BME280_pressure;Samples;Min_cycle;Max_cycle;Signal;HPM_P1;HPM_P2
2023/05/09 00:00:32;;;;;;;10.85;3.17;;;13.00;99.90;;;;;;5012314;28;20049;-59
2023/05/09 00:03:01;;;;;;;6.88;2.95;;;13.00;99.90;;;;;;5022045;28;20408;-58
2023/05/09 00:05:29;;;;;;;7.53;3.30;;;13.00;99.90;;;;;;5007941;28;20058;-59
2023/05/09 00:07:57;;;;;;;7.88;3.30;;;12.90;99.90;;;;;;5014525;28;20046;-58
2023/05/09 00:10:25;;;;;;;8.25;2.88;;;12.90;99.90;;;;;;5010041;28;20379;-59
2023/05/09 00:12:53;;;;;;;7.45;2.97;;;12.80;99.90;;;;;;5022459;28;20045;-59
2023/05/09 00:15:21;;;;;;;5.10;2.78;;;12.80;99.90;;;;;;5030329;28;20045;-59
2023/05/09 00:17:49;;;;;;;7.68;3.78;;;12.70;99.90;;;;;;5025700;28;20050;-58
2023/05/09 00:20:17;;;;;;;7.80;2.63;;;12.70;99.90;;;;;;5011384;28;20405;-60
2023/05/09 00:22:45;;;;;;;6.72;3.50;;;12.70;99.90;;;;;;5003045;28;20057;-60
2023/05/09 00:25:13;;;;;;;8.43;3.78;;;12.70;99.90;;;;;;5021677;28;20045;-59
2023/05/09 00:27:44;;;;;;;8.55;4.28;;;12.70;99.90;;;;;;5028266;28;20058;-59
2023/05/09 00:30:12;;;;;;;7.25;4.47;;;13.10;99.90;;;;;;5010214;28;20042;-61
2023/05/09 00:32:40;;;;;;;6.18;3.13;;;12.60;99.90;;;;;;5000417;28;20050;-60
2023/05/09 00:35:08;;;;;;;7.80;3.45;;;12.60;99.90;;;;;;5028131;28;20061;-59
2023/05/09 00:37:36;;;;;;;6.35;3.40;;;12.60;99.90;;;;;;5013309;28;20056;-58
2023/05/09 00:40:06;;;;;;;7.32;4.13;;;12.60;99.90;;;;;;5003584;28;20053;-59
2023/05/09 00:42:35;;;;;;;6.60;3.45;;;12.60;99.90;;;;;;5016121;28;20049;-60
2023/05/09 00:45:03;;;;;;;8.93;3.17;;;12.60;99.90;;;;;;5017720;28;20049;-60
2023/05/09 00:47:31;;;;;;;7.55;2.90;;;12.60;99.90;;;;;;5029596;28;20049;-59
2023/05/09 00:50:01;;;;;;;7.35;2.95;;;12.60;99.90;;;;;;5027931;28;20038;-60
2023/05/09 00:52:29;;;;;;;4.88;2.88;;;12.70;99.90;;;;;;5011550;28;20049;-60
2023/05/09 00:54:57;;;;;;;5.75;2.60;;;12.70;99.90;;;;;;5011804;28;20041;-60
2023/05/09 00:57:25;;;;;;;6.60;2.78;;;12.80;99.90;;;;;;5029804;28;20046;-59
2023/05/09 00:59:53;;;;;;;7.10;3.30;;;12.80;99.90;;;;;;5025838;28;20052;-59
2023/05/09 01:02:20;;;;;;;4.95;2.80;;;12.90;99.90;;;;;;5027806;28;20393;-59
2023/05/09 01:04:48;;;;;;;7.85;2.60;;;12.90;99.90;;;;;;5008945;28;20045;-59
2023/05/09 01:07:21;;;;;;;7.07;2.30;;;12.90;99.90;;;;;;5028445;28;20405;-59
2023/05/09 01:10:05;;;;;;;4.32;2.20;;;12.90;99.90;;;;;;5026993;28;20053;-59
2023/05/09 01:12:57;;;;;;;3.50;2.28;;;12.90;99.90;;;;;;4998539;28;20049;-59
2023/05/09 01:15:36;;;;;;;5.13;2.33;;;12.90;99.90;;;;;;5012678;28;20056;-59
2023/05/09 01:18:30;;;;;;;5.97;2.60;;;12.90;99.90;;;;;;5024158;28;20056;-60
2023/05/09 01:21:13;;;;;;;7.90;2.60;;;12.90;99.90;;;;;;5010087;28;20045;-60
2023/05/09 01:23:43;;;;;;;4.68;2.10;;;12.90;99.90;;;;;;4996091;28;20052;-60
2023/05/09 01:26:43;;;;;;;3.28;2.25;;;12.90;99.90;;;;;;4996734;28;20033;-60
2023/05/09 01:29:36;;;;;;;7.75;2.40;;;12.90;99.90;;;;;;5005217;28;20416;-59
2023/05/09 01:32:10;;;;;;;4.00;2.20;;;12.90;99.90;;;;;;5005233;28;20042;-59
2023/05/09 01:34:42;;;;;;;4.35;2.38;;;12.80;99.90;;;;;;5010776;28;20054;-59
2023/05/09 01:37:13;;;;;;;6.50;2.53;;;12.80;99.90;;;;;;5002454;28;20062;-59
2023/05/09 01:39:46;;;;;;;6.78;2.22;;;12.80;99.90;;;;;;5006232;28;20041;-59
2023/05/09 01:42:26;;;;;;;9.73;2.17;;;12.80;99.90;;;;;;5011015;28;20061;-59
2023/05/09 01:44:55;;;;;;;7.82;2.70;;;12.70;99.90;;;;;;5011131;28;20066;-60
2023/05/09 01:47:26;;;;;;;7.95;2.25;;;12.70;99.90;;;;;;5026338;28;20057;-59
2023/05/09 01:49:55;;;;;;;7.10;2.20;;;12.60;99.90;;;;;;5011995;28;20045;-58
2023/05/09 01:52:24;;;;;;;10.60;2.20;;;12.60;99.90;;;;;;5010006;28;20401;-60
2023/05/09 01:54:53;;;;;;;9.75;2.53;;;12.60;99.90;;;;;;5012253;28;20072;-58
2023/05/09 01:57:24;;;;;;;9.27;2.58;;;12.60;99.90;;;;;;5014130;28;20088;-60
2023/05/09 01:59:54;;;;;;;8.15;2.60;;;12.50;99.90;;;;;;5013362;28;20405;-58
2023/05/09 02:02:23;;;;;;;6.00;2.20;;;12.50;99.90;;;;;;5027962;28;20041;-59
2023/05/09 02:04:55;;;;;;;12.38;2.45;;;12.40;99.90;;;;;;5028549;28;20296;-60
2023/05/09 02:07:23;;;;;;;5.53;2.83;;;12.50;99.90;;;;;;5011809;28;20519;-60
2023/05/09 02:09:56;;;;;;;12.75;2.45;;;12.50;99.90;;;;;;5012529;28;20038;-59
2023/05/09 02:12:25;;;;;;;8.32;2.45;;;12.50;99.90;;;;;;5004982;28;20065;-59
2023/05/09 02:14:52;;;;;;;7.80;1.80;;;12.50;99.90;;;;;;5012823;28;20046;-60
2023/05/09 02:17:20;;;;;;;9.32;2.60;;;12.60;99.90;;;;;;5028001;28;20046;-60
2023/05/09 02:19:48;;;;;;;4.97;2.00;;;12.60;99.90;;;;;;5011433;28;20037;-59
2023/05/09 02:22:16;;;;;;;10.05;2.85;;;12.60;99.90;;;;;;5011665;28;20531;-60
2023/05/09 02:24:44;;;;;;;9.57;2.20;;;12.60;99.90;;;;;;5012673;28;20054;-58
2023/05/09 02:27:13;;;;;;;11.00;2.05;;;12.70;99.90;;;;;;5012575;28;20045;-59
2023/05/09 02:29:46;;;;;;;6.55;2.30;;;12.70;99.90;;;;;;5000509;28;20057;-59
2023/05/09 02:32:24;;;;;;;8.27;2.20;;;12.70;99.90;;;;;;4990718;28;20054;-59
2023/05/09 02:34:53;;;;;;;19.98;3.13;;;12.70;99.90;;;;;;5008167;28;20398;-59
2023/05/09 02:37:21;;;;;;;5.38;2.10;;;12.70;99.90;;;;;;4992612;28;20417;-59
2023/05/09 02:39:49;;;;;;;6.47;1.83;;;12.70;99.90;;;;;;5005402;28;20053;-59
2023/05/09 02:42:27;;;;;;;9.57;2.17;;;12.70;99.90;;;;;;5011369;28;20072;-60
2023/05/09 02:44:56;;;;;;;16.97;2.30;;;12.70;99.90;;;;;;5008545;28;20069;-60
2023/05/09 02:47:25;;;;;;;18.27;2.65;;;12.70;99.90;;;;;;5012573;28;20295;-60
2023/05/09 02:49:52;;;;;;;16.35;2.85;;;12.70;99.90;;;;;;5011122;28;20057;-60
2023/05/09 02:52:20;;;;;;;15.25;1.90;;;12.70;99.90;;;;;;5027216;28;20050;-60
2023/05/09 02:54:48;;;;;;;10.27;2.60;;;12.70;99.90;;;;;;5010249;28;20046;-59
2023/05/09 02:57:16;;;;;;;9.20;2.00;;;12.70;99.90;;;;;;5010742;28;20500;-59
2023/05/09 02:59:43;;;;;;;6.50;2.17;;;12.70;99.90;;;;;;5010856;28;20049;-60
2023/05/09 03:02:11;;;;;;;11.32;2.72;;;12.70;99.90;;;;;;5010682;28;20038;-59
2023/05/09 03:04:45;;;;;;;5.25;1.77;;;12.70;99.90;;;;;;5008563;28;20512;-59
2023/05/09 03:07:13;;;;;;;11.00;2.08;;;12.70;99.90;;;;;;5008764;28;20046;-59
2023/05/09 03:09:41;;;;;;;7.20;1.98;;;12.70;99.90;;;;;;5010756;28;20042;-58
2023/05/09 03:12:08;;;;;;;14.98;2.25;;;12.70;99.90;;;;;;5008454;28;20046;-58
2023/05/09 03:14:36;;;;;;;10.00;2.20;;;12.70;99.90;;;;;;5025605;28;20057;-59
2023/05/09 03:17:04;;;;;;;10.13;2.10;;;12.70;99.90;;;;;;5026680;28;20049;-58
2023/05/09 03:19:34;;;;;;;9.10;2.20;;;12.70;99.90;;;;;;5010697;28;20042;-59
2023/05/09 03:22:02;;;;;;;7.93;1.77;;;12.70;99.90;;;;;;5018644;28;20053;-59
2023/05/09 03:24:34;;;;;;;6.05;2.00;;;12.70;99.90;;;;;;5010052;28;20065;-59
2023/05/09 03:27:02;;;;;;;5.65;2.45;;;12.60;99.90;;;;;;5009616;28;20038;-58
2023/05/09 03:29:30;;;;;;;8.63;3.40;;;12.60;99.90;;;;;;5006597;28;20532;-59
2023/05/09 03:31:58;;;;;;;4.88;1.70;;;12.60;99.90;;;;;;5023443;28;20045;-59
2023/05/09 03:34:25;;;;;;;9.57;2.42;;;12.60;99.90;;;;;;5025372;28;20042;-59
2023/05/09 03:36:53;;;;;;;7.63;2.15;;;12.50;99.90;;;;;;5023149;28;20050;-59
2023/05/09 03:39:21;;;;;;;8.15;1.80;;;12.50;99.90;;;;;;5010327;28;20053;-59
2023/05/09 03:41:54;;;;;;;5.32;1.88;;;12.40;99.90;;;;;;5009819;28;20054;-59
2023/05/09 03:44:22;;;;;;;8.02;2.20;;;12.30;99.90;;;;;;5000155;28;20054;-60
2023/05/09 03:46:49;;;;;;;7.60;2.00;;;12.20;99.90;;;;;;5014582;28;20044;-58
2023/05/09 03:49:17;;;;;;;9.27;2.05;;;12.20;99.90;;;;;;5010911;28;20050;-59
2023/05/09 03:51:48;;;;;;;11.15;2.80;;;12.20;99.90;;;;;;5009745;28;20045;-58
2023/05/09 03:54:16;;;;;;;5.82;1.92;;;12.20;99.90;;;;;;5012466;28;20485;-59
2023/05/09 03:56:44;;;;;;;10.60;2.20;;;12.10;99.90;;;;;;5015333;28;20667;-59
2023/05/09 03:59:12;;;;;;;8.25;2.22;;;;;;;;;;5027579;28;20061;-58
2023/05/09 04:01:40;;;;;;;7.00;2.30;;;12.00;99.90;;;;;;5009407;28;20485;-58
2023/05/09 04:04:09;;;;;;;9.15;2.47;;;12.00;99.90;;;;;;5014180;28;20046;-60
2023/05/09 04:06:37;;;;;;;9.02;2.92;;;11.90;99.90;;;;;;5013865;28;20366;-59
2023/05/09 04:09:08;;;;;;;9.63;2.25;;;11.90;99.90;;;;;;5011685;28;20048;-59
2023/05/09 04:11:36;;;;;;;5.75;2.15;;;11.80;99.90;;;;;;4999531;28;20046;-59
2023/05/09 04:14:09;;;;;;;6.32;2.03;;;11.80;99.90;;;;;;5008565;28;20057;-59
2023/05/09 04:23:27;;;;;;;15.05;3.05;;;11.60;99.90;;;;;;4851023;29;20646;-59
2023/05/09 04:25:58;;;;;;;12.68;2.45;;;11.50;99.90;;;;;;4857024;29;20374;-60
2023/05/09 04:28:27;;;;;;;13.32;3.40;;;11.50;99.90;;;;;;4842631;29;20062;-58
2023/05/09 04:30:57;;;;;;;8.50;2.40;;;11.40;99.90;;;;;;4842212;29;20508;-58
2023/05/09 04:33:25;;;;;;;9.65;2.42;;;11.40;99.90;;;;;;4825091;29;20398;-58
2023/05/09 04:35:58;;;;;;;12.07;2.67;;;11.40;99.90;;;;;;4843192;29;20058;-59
2023/05/09 04:38:26;;;;;;;12.00;2.47;;;11.30;99.90;;;;;;4842723;29;20061;-59
2023/05/09 04:40:55;;;;;;;8.98;2.15;;;11.30;99.90;;;;;;4842045;29;20038;-59
2023/05/09 04:43:25;;;;;;;8.85;2.42;;;11.30;99.90;;;;;;4842545;29;20061;-59
2023/05/09 04:45:53;;;;;;;9.85;3.38;;;11.20;99.90;;;;;;4841304;29;20421;-59
2023/05/09 04:48:21;;;;;;;9.27;2.20;;;11.20;99.90;;;;;;4830360;29;20042;-58
2023/05/09 04:50:49;;;;;;;9.93;2.78;;;11.10;99.90;;;;;;4836025;29;20038;-58
2023/05/09 04:53:17;;;;;;;10.68;2.45;;;11.10;99.90;;;;;;4820688;29;20054;-60
2023/05/09 04:55:47;;;;;;;12.52;2.38;;;11.10;99.90;;;;;;4829886;29;20507;-59
2023/05/09 04:58:15;;;;;;;7.35;2.67;;;11.10;99.90;;;;;;4834767;29;20053;-59
2023/05/09 05:00:43;;;;;;;13.10;2.50;;;11.10;99.90;;;;;;4835151;29;20054;-60
2023/05/09 05:03:11;;;;;;;10.77;3.92;;;11.00;99.90;;;;;;4821557;29;20049;-59
2023/05/09 05:05:40;;;;;;;12.32;2.70;;;11.00;99.90;;;;;;4823923;29;20418;-59
2023/05/09 05:08:09;;;;;;;11.07;2.85;;;11.00;99.90;;;;;;4829935;29;20085;-59
2023/05/09 05:10:40;;;;;;;7.38;2.33;;;11.00;99.90;;;;;;4819264;29;20049;-59
2023/05/09 05:13:11;;;;;;;6.97;2.30;;;;;;;;;;4825314;29;20050;-60
2023/05/09 05:15:43;;;;;;;12.85;3.72;;;10.90;99.90;;;;;;4837174;29;20046;-58
2023/05/09 05:18:15;;;;;;;18.35;4.05;;;10.90;99.90;;;;;;4814425;29;20073;-59
2023/05/09 05:20:43;;;;;;;10.88;3.08;;;10.90;99.90;;;;;;4834384;29;20041;-59
2023/05/09 05:23:11;;;;;;;10.68;2.88;;;10.90;99.90;;;;;;4824163;29;20062;-59
2023/05/09 05:25:39;;;;;;;6.95;2.45;;;11.00;99.90;;;;;;4812399;29;20054;-59
2023/05/09 05:28:08;;;;;;;13.82;3.35;;;11.00;99.90;;;;;;4837556;29;20053;-59
2023/05/09 05:30:39;;;;;;;11.32;3.22;;;11.00;99.90;;;;;;4822395;29;20053;-59
2023/05/09 05:33:07;;;;;;;15.77;5.03;;;11.00;99.90;;;;;;4833213;29;20064;-59
2023/05/09 05:35:38;;;;;;;14.70;4.95;;;11.10;99.90;;;;;;4834425;29;20049;-59
2023/05/09 05:38:06;;;;;;;9.88;3.10;;;11.00;99.90;;;;;;4836675;29;20517;-59
2023/05/09 05:40:34;;;;;;;9.70;2.97;;;11.10;99.90;;;;;;4838136;29;20504;-59
2023/05/09 05:43:04;;;;;;;;;;;11.20;99.90;;;;;;4829911;29;20054;-59
2023/05/09 05:45:36;;;;;;;12.93;3.33;;;11.20;99.90;;;;;;4822107;29;20369;-59
2023/05/09 05:48:10;;;;;;;12.93;3.42;;;11.20;99.90;;;;;;4836572;29;20049;-59
2023/05/09 05:50:38;;;;;;;11.45;3.15;;;11.30;99.90;;;;;;4838149;29;20065;-59
2023/05/09 05:53:06;;;;;;;16.15;4.35;;;11.30;99.90;;;;;;4836482;29;20417;-61
2023/05/09 05:55:38;;;;;;;9.27;3.78;;;11.40;99.90;;;;;;4821334;29;20065;-59
2023/05/09 05:58:06;;;;;;;12.05;3.60;;;11.40;99.90;;;;;;4822121;29;20538;-59
2023/05/09 06:00:37;;;;;;;14.52;3.20;;;11.40;99.90;;;;;;4835868;29;20060;-59
2023/05/09 06:03:06;;;;;;;18.55;5.18;;;11.50;99.90;;;;;;4832863;29;20046;-59
2023/05/09 06:05:46;;;;;;;10.82;3.38;;;11.60;99.90;;;;;;4819225;29;20495;-60
2023/05/09 06:08:14;;;;;;;13.50;3.53;;;11.60;99.90;;;;;;4828676;29;20054;-59
2023/05/09 06:10:42;;;;;;;11.48;3.67;;;11.60;99.90;;;;;;4830592;29;20050;-59
2023/05/09 06:13:10;;;;;;;10.05;3.38;;;11.70;99.90;;;;;;4835424;29;20501;-60
2023/05/09 06:15:42;;;;;;;8.93;3.20;;;11.70;99.90;;;;;;4835733;29;20052;-59
2023/05/09 06:18:10;;;;;;;7.93;2.90;;;11.80;99.90;;;;;;4832242;29;20054;-61
2023/05/09 06:20:38;;;;;;;7.95;2.78;;;12.00;99.90;;;;;;4818397;29;20053;-59
2023/05/09 06:23:07;;;;;;;10.65;2.90;;;12.00;99.90;;;;;;4837839;29;20532;-59
2023/05/09 06:25:34;;;;;;;7.82;2.72;;;12.20;99.90;;;;;;4835386;29;20061;-60
2023/05/09 06:28:02;;;;;;;9.50;2.55;;;12.30;99.90;;;;;;4836417;29;20097;-59
2023/05/09 06:30:30;;;;;;;7.60;2.55;;;12.40;99.90;;;;;;4838416;29;20064;-60
2023/05/09 06:32:58;;;;;;;6.07;3.15;;;12.60;99.90;;;;;;4836378;29;20058;-60
2023/05/09 06:35:26;;;;;;;6.47;2.63;;;12.70;99.90;;;;;;4835544;29;20042;-60
2023/05/09 06:37:54;;;;;;;9.07;3.30;;;12.70;99.90;;;;;;4837319;29;20054;-59
2023/05/09 06:40:22;;;;;;;10.55;3.85;;;12.80;99.90;;;;;;4833241;29;20038;-61
2023/05/09 06:42:50;;;;;;;5.88;2.90;;;12.80;99.90;;;;;;4832981;29;20397;-60
2023/05/09 06:45:17;;;;;;;9.52;3.00;;;12.90;99.90;;;;;;4833087;29;20057;-60
2023/05/09 06:47:46;;;;;;;8.63;2.75;;;13.00;99.90;;;;;;4820585;29;20064;-60
2023/05/09 06:50:14;;;;;;;7.40;2.53;;;13.00;99.90;;;;;;4814857;29;20065;-60
2023/05/09 06:52:44;;;;;;;;;;;13.10;99.90;;;;;;4835654;29;20050;-60
2023/05/09 06:55:12;;;;;;;8.60;3.50;;;13.30;99.90;;;;;;4835647;29;20407;-60
2023/05/09 06:57:41;;;;;;;5.65;2.90;;;13.20;99.90;;;;;;4837688;29;20066;-60
2023/05/09 07:00:10;;;;;;;6.85;2.30;;;13.40;99.90;;;;;;4838517;29;20054;-60
2023/05/09 07:02:42;;;;;;;7.03;2.70;;;13.60;99.90;;;;;;4835147;29;20057;-59
2023/05/09 07:05:14;;;;;;;8.05;2.17;;;13.60;99.90;;;;;;4827785;29;20391;-59
2023/05/09 07:07:43;;;;;;;7.82;1.80;;;13.70;99.90;;;;;;4813779;29;20067;-61
2023/05/09 07:10:11;;;;;;;7.47;2.20;;;13.70;99.90;;;;;;4819190;29;20062;-60
2023/05/09 07:12:40;;;;;;;5.53;2.13;;;13.80;99.90;;;;;;4833580;29;20038;-60
2023/05/09 07:15:08;;;;;;;8.40;2.80;;;13.80;99.90;;;;;;4826047;29;20054;-58
2023/05/09 07:17:36;;;;;;;5.82;2.58;;;13.80;99.90;;;;;;4832480;29;20064;-62
2023/05/09 07:20:08;;;;;;;10.05;2.80;;;13.90;99.90;;;;;;4833568;29;20517;-59
2023/05/09 07:22:37;;;;;;;7.18;2.03;;;13.90;99.90;;;;;;4831812;29;20057;-60
2023/05/09 07:25:07;;;;;;;7.63;2.27;;;13.90;99.90;;;;;;4831657;29;20050;-59
2023/05/09 07:27:36;;;;;;;6.68;2.80;;;;;;;;;;4831961;29;20477;-60
2023/05/09 07:30:09;;;;;;;10.55;3.20;;;14.00;99.90;;;;;;4825928;29;20061;-61
2023/05/09 07:32:37;;;;;;;7.10;3.05;;;14.20;99.90;;;;;;4829239;29;20080;-60
2023/05/09 07:35:05;;;;;;;7.35;2.97;;;14.20;99.90;;;;;;4825719;29;20061;-60
2023/05/09 07:37:36;;;;;;;6.72;2.75;;;14.20;99.90;;;;;;4825268;29;20061;-59
2023/05/09 07:40:06;;;;;;;8.23;2.50;;;14.30;99.90;;;;;;4827621;29;20043;-60
2023/05/09 07:42:34;;;;;;;5.43;2.10;;;14.40;99.90;;;;;;4818241;29;20054;-59
2023/05/09 07:45:04;;;;;;;8.48;2.22;;;14.50;99.90;;;;;;4835717;29;20049;-60
2023/05/09 07:47:37;;;;;;;6.50;2.08;;;14.50;99.90;;;;;;4813486;29;20407;-60
2023/05/09 07:50:06;;;;;;;8.32;2.22;;;;;;;;;;4818056;29;20065;-61
2023/05/09 07:52:38;;;;;;;;;;;14.70;99.90;;;;;;4836718;29;20517;-60
2023/05/09 07:55:07;;;;;;;6.50;2.30;;;14.90;99.90;;;;;;4830565;29;19928;-61
2023/05/09 07:57:35;;;;;;;4.10;1.70;;;14.90;99.90;;;;;;4832606;29;20047;-60
2023/05/09 08:00:07;;;;;;;6.82;2.03;;;14.90;99.90;;;;;;4828962;29;20520;-61
2023/05/09 08:02:42;;;;;;;5.50;2.10;;;15.10;99.90;;;;;;4834145;29;20409;-60
2023/05/09 08:05:12;;;;;;;4.75;1.70;;;15.30;99.90;;;;;;4834181;29;20076;-60
2023/05/09 08:07:41;;;;;;;6.72;1.70;;;15.30;99.90;;;;;;4835883;29;20544;-61
2023/05/09 08:10:09;;;;;;;9.30;2.90;;;15.50;99.90;;;;;;4831608;29;20517;-61
2023/05/09 08:12:38;;;;;;;7.53;1.93;;;15.40;99.90;;;;;;4831930;29;20140;-61
2023/05/09 08:15:07;;;;;;;5.28;2.25;;;15.50;99.90;;;;;;4827079;29;20548;-61
2023/05/09 08:17:37;;;;;;;6.00;1.83;;;15.50;99.90;;;;;;4837429;29;20058;-60
2023/05/09 08:20:07;;;;;;;6.43;2.28;;;15.40;99.90;;;;;;4834210;29;20050;-62
2023/05/09 08:22:39;;;;;;;4.22;2.00;;;15.30;99.90;;;;;;4830389;29;20081;-60
2023/05/09 08:25:07;;;;;;;5.70;1.80;;;15.30;99.90;;;;;;4822017;29;20042;-60
2023/05/09 08:27:38;;;;;;;6.03;2.58;;;15.20;99.90;;;;;;4831869;29;20050;-61
2023/05/09 08:30:06;;;;;;;4.80;1.85;;;16.50;99.90;;;;;;4837227;29;20225;-61
2023/05/09 08:32:34;;;;;;;14.40;2.38;;;15.20;99.90;;;;;;4836352;29;20056;-60
2023/05/09 08:35:03;;;;;;;4.53;1.75;;;;;;;;;;4838472;29;20069;-59
2023/05/09 08:37:31;;;;;;;9.27;1.48;;;15.10;99.90;;;;;;4821218;29;20343;-60
2023/05/09 08:39:59;;;;;;;11.27;2.97;;;15.10;99.90;;;;;;4836339;29;20061;-59
2023/05/09 08:42:29;;;;;;;4.30;1.77;;;15.00;99.90;;;;;;4840044;29;20056;-61
2023/05/09 08:44:59;;;;;;;16.40;4.97;;;15.00;99.90;;;;;;4838138;29;20054;-61
2023/05/09 08:47:28;;;;;;;3.38;1.73;;;14.90;99.90;;;;;;4838749;29;20053;-60
2023/05/09 08:49:56;;;;;;;10.23;1.88;;;14.80;99.90;;;;;;4840192;29;20054;-60
2023/05/09 08:52:26;;;;;;;10.48;3.45;;;14.80;99.90;;;;;;4838710;29;20062;-59
2023/05/09 08:54:55;;;;;;;4.55;1.67;;;14.80;99.90;;;;;;4836180;29;20077;-60
2023/05/09 08:57:23;;;;;;;12.27;2.25;;;14.90;99.90;;;;;;4827744;29;20046;-60
2023/05/09 08:59:51;;;;;;;4.55;1.80;;;14.90;99.90;;;;;;4838371;29;20061;-61
2023/05/09 09:02:19;;;;;;;6.28;2.00;;;15.00;99.90;;;;;;4835177;29;20050;-61
2023/05/09 09:04:48;;;;;;;3.38;1.60;;;15.20;99.90;;;;;;4831322;29;20498;-59
2023/05/09 09:07:17;;;;;;;3.88;1.80;;;15.30;99.90;;;;;;4830058;29;20062;-61
2023/05/09 09:09:46;;;;;;;3.22;1.65;;;15.50;99.90;;;;;;4839605;29;20366;-62
2023/05/09 09:12:15;;;;;;;5.75;1.92;;;15.60;99.90;;;;;;4836643;29;20509;-60
2023/05/09 09:14:49;;;;;;;3.60;1.90;;;15.70;99.90;;;;;;4837452;29;20064;-60
2023/05/09 09:17:20;;;;;;;5.60;1.42;;;15.70;99.90;;;;;;4838807;29;20050;-61
2023/05/09 09:19:51;;;;;;;2.97;1.20;;;15.70;99.90;;;;;;4838984;29;20058;-60
2023/05/09 09:22:19;;;;;;;4.47;1.65;;;15.70;99.90;;;;;;4837686;29;20045;-62
2023/05/09 09:24:47;;;;;;;5.68;1.40;;;15.80;99.90;;;;;;4836653;29;20054;-61
2023/05/09 09:27:15;;;;;;;6.10;1.90;;;15.90;99.90;;;;;;4837210;29;20054;-62
2023/05/09 09:29:43;;;;;;;9.07;1.52;;;16.00;99.90;;;;;;4837998;29;20521;-62
2023/05/09 09:32:11;;;;;;;5.03;1.23;;;16.10;99.90;;;;;;4836985;29;20053;-61
2023/05/09 09:34:39;;;;;;;4.53;1.73;;;16.20;99.90;;;;;;4838307;29;20045;-61
2023/05/09 09:37:07;;;;;;;4.10;1.40;;;16.30;99.90;;;;;;4837481;29;20399;-62
2023/05/09 09:39:52;;;;;;;3.83;1.55;;;16.30;99.90;;;;;;4836273;29;20042;-60
2023/05/09 09:42:20;;;;;;;5.03;1.90;;;16.30;99.90;;;;;;4828520;29;20054;-61
2023/05/09 09:45:17;;;;;;;6.18;1.85;;;16.20;99.90;;;;;;4832833;29;20058;-62
2023/05/09 09:47:48;;;;;;;7.78;2.38;;;16.10;99.90;;;;;;4836243;29;20406;-59
2023/05/09 09:50:17;;;;;;;;;;;16.00;99.90;;;;;;4837034;29;20057;-59
2023/05/09 09:52:49;;;;;;;7.60;2.53;;;16.00;99.90;;;;;;4833891;29;19928;-60
2023/05/09 09:55:18;;;;;;;9.48;2.00;;;15.90;99.90;;;;;;4837168;29;20065;-61
2023/05/09 09:57:47;;;;;;;10.55;2.50;;;15.90;99.90;;;;;;4833003;29;20420;-62
2023/05/09 10:00:16;;;;;;;4.35;2.33;;;16.00;99.90;;;;;;4833991;29;20050;-62
2023/05/09 10:02:57;;;;;;;4.53;1.60;;;16.10;99.90;;;;;;4835732;29;20070;-61
2023/05/09 10:05:25;;;;;;;;;;;16.30;99.90;;;;;;4829156;29;20065;-64
2023/05/09 10:07:58;;;;;;;3.45;1.52;;;16.40;99.90;;;;;;4834971;29;19939;-61
2023/05/09 10:10:28;;;;;;;2.92;1.25;;;16.50;99.90;;;;;;4836023;29;20050;-61
2023/05/09 10:12:58;;;;;;;3.85;1.40;;;16.50;99.90;;;;;;4821123;29;20050;-61
2023/05/09 10:15:28;;;;;;;5.07;1.20;;;16.40;99.90;;;;;;4837936;29;20050;-60
2023/05/09 10:18:07;;;;;;;4.88;1.38;;;16.40;99.90;;;;;;4837067;29;20069;-61
2023/05/09 10:20:39;;;;;;;3.28;1.33;;;16.20;99.90;;;;;;4819937;29;20054;-62
2023/05/09 10:23:07;;;;;;;3.58;1.35;;;16.20;99.90;;;;;;4836361;29;20061;-62
2023/05/09 10:25:43;;;;;;;4.60;1.10;;;16.20;99.90;;;;;;4837732;29;20049;-62
2023/05/09 10:28:13;;;;;;;5.28;1.30;;;16.50;99.90;;;;;;4824715;29;20046;-61
2023/05/09 10:30:54;;;;;;;3.45;1.15;;;16.40;99.90;;;;;;4829860;29;20056;-62
2023/05/09 10:33:29;;;;;;;3.55;1.13;;;16.80;99.90;;;;;;4835807;29;20049;-61
2023/05/09 10:36:00;;;;;;;4.47;1.23;;;17.00;99.90;;;;;;4823964;29;20046;-62
2023/05/09 10:38:27;;;;;;;;;;;17.30;99.90;;;;;;4837707;29;20049;-62
2023/05/09 10:40:56;;;;;;;3.58;1.20;;;17.60;99.90;;;;;;4834531;29;19931;-61
2023/05/09 10:43:24;;;;;;;8.05;1.30;;;18.00;99.90;;;;;;4835820;29;20502;-62
2023/05/09 10:45:53;;;;;;;6.10;1.02;;;18.00;99.90;;;;;;4836469;29;20061;-63
2023/05/09 10:48:23;;;;;;;5.80;1.25;;;18.20;99.90;;;;;;4836533;29;20062;-61
2023/05/09 10:50:52;;;;;;;3.88;1.30;;;18.30;99.90;;;;;;4820542;29;20434;-62
2023/05/09 10:53:23;;;;;;;4.97;1.13;;;18.40;99.90;;;;;;4820580;29;20054;-61
2023/05/09 10:55:57;;;;;;;6.68;2.05;;;18.40;99.90;;;;;;4834729;29;20054;-59
2023/05/09 10:58:32;;;;;;;7.50;1.65;;;17.80;99.90;;;;;;4815689;29;20073;-62
2023/05/09 11:01:02;;;;;;;4.97;1.17;;;18.30;99.90;;;;;;4833531;29;20064;-63
2023/05/09 11:03:56;;;;;;;6.05;1.10;;;18.30;99.90;;;;;;4832626;29;20050;-62
2023/05/09 11:06:39;;;;;;;4.45;0.70;;;18.50;99.90;;;;;;4832606;29;20057;-61
2023/05/09 11:09:31;;;;;;;7.40;1.02;;;18.50;99.90;;;;;;4833224;29;20046;-62
2023/05/09 11:12:06;;;;;;;0.75;0.55;;;18.80;99.90;;;;;;4831720;29;20061;-62
2023/05/09 11:14:40;;;;;;;7.00;1.15;;;18.90;99.90;;;;;;4835294;29;20535;-60
2023/05/09 11:17:13;;;;;;;4.38;0.80;;;18.90;99.90;;;;;;4818532;29;20054;-62
2023/05/09 11:19:45;;;;;;;3.20;0.95;;;19.00;99.90;;;;;;4835817;29;20398;-62
2023/05/09 11:22:16;;;;;;;2.10;0.70;;;19.20;99.90;;;;;;4835715;29;20069;-63
2023/05/09 11:24:57;;;;;;;2.50;0.63;;;19.20;99.90;;;;;;4837077;29;20406;-62
2023/05/09 11:27:27;;;;;;;3.38;1.00;;;19.20;99.90;;;;;;4833897;29;20050;-63
2023/05/09 11:29:56;;;;;;;21.60;6.00;;;19.30;99.90;;;;;;4820279;29;20409;-64
2023/05/09 11:32:31;;;;;;;6.15;2.17;;;19.40;99.90;;;;;;4822838;29;20052;-63
2023/05/09 11:35:11;;;;;;;7.18;1.58;;;19.40;99.90;;;;;;4836162;29;20066;-62
2023/05/09 11:38:03;;;;;;;3.90;1.10;;;19.40;99.90;;;;;;4836126;29;20058;-64
2023/05/09 11:40:34;;;;;;;2.15;0.82;;;19.40;99.90;;;;;;4831502;29;20498;-63
2023/05/09 11:43:02;;;;;;;5.72;1.10;;;19.40;99.90;;;;;;4829351;29;20054;-64
2023/05/09 11:45:31;;;;;;;3.03;1.23;;;19.40;99.90;;;;;;4832040;29;20054;-63
2023/05/09 11:48:00;;;;;;;4.60;1.10;;;19.40;99.90;;;;;;4828627;29;20046;-62
2023/05/09 11:50:28;;;;;;;8.00;1.30;;;19.30;99.90;;;;;;4835398;29;20057;-63
2023/05/09 11:52:57;;;;;;;8.98;1.88;;;19.10;99.90;;;;;;4836056;29;20054;-61
2023/05/09 11:55:28;;;;;;;10.80;2.33;;;18.50;99.90;;;;;;4836173;29;20478;-63
2023/05/09 11:57:57;;;;;;;8.20;1.50;;;18.50;99.90;;;;;;4829966;29;20070;-63
2023/05/09 12:00:25;;;;;;;12.77;1.77;;;18.20;99.90;;;;;;4836185;29;20045;-63
2023/05/09 12:02:54;;;;;;;10.95;2.13;;;18.00;99.90;;;;;;4834724;29;20050;-62
2023/05/09 12:05:23;;;;;;;7.10;1.58;;;19.00;99.90;;;;;;4831903;29;20050;-63
2023/05/09 12:07:51;;;;;;;14.88;2.10;;;17.50;99.90;;;;;;4832947;29;20056;-62
2023/05/09 12:10:21;;;;;;;8.32;1.95;;;17.40;99.90;;;;;;4838921;29;20050;-62
2023/05/09 12:12:50;;;;;;;;;;;17.30;99.90;;;;;;4834895;29;20069;-63
2023/05/09 12:15:18;;;;;;;6.07;2.67;;;17.10;99.90;;;;;;4852251;29;20091;-62
2023/05/09 12:18:05;;;;;;;15.93;2.13;;;17.10;99.90;;;;;;4839098;29;20430;-61
2023/05/09 12:20:41;;;;;;;9.50;2.10;;;17.00;99.90;;;;;;4837313;29;20523;-61
2023/05/09 12:23:11;;;;;;;10.95;2.38;;;16.90;99.90;;;;;;4839002;29;20058;-62
2023/05/09 12:25:52;;;;;;;12.38;1.95;;;16.90;99.90;;;;;;4838829;29;20057;-63
2023/05/09 12:28:24;;;;;;;7.47;2.28;;;16.80;99.90;;;;;;4838566;29;20087;-63
2023/05/09 12:30:53;;;;;;;7.22;2.63;;;16.40;99.90;;;;;;4839154;29;20054;-62
2023/05/09 12:33:21;;;;;;;16.75;3.10;;;16.60;99.90;;;;;;4840055;29;20057;-62
2023/05/09 12:36:04;;;;;;;14.75;2.30;;;16.50;99.90;;;;;;4839580;29;20494;-62
2023/05/09 12:38:32;;;;;;;11.70;2.60;;;16.30;99.90;;;;;;4837893;29;20065;-60
2023/05/09 12:41:08;;;;;;;12.43;2.97;;;16.10;99.90;;;;;;4838712;29;20068;-61
2023/05/09 12:43:56;;;;;;;9.20;2.10;;;15.90;99.90;;;;;;4836290;29;20053;-61
2023/05/09 12:46:25;;;;;;;11.75;1.95;;;15.90;99.90;;;;;;4838863;29;20405;-60
2023/05/09 12:48:56;;;;;;;11.98;1.60;;;15.80;99.90;;;;;;4836668;29;20801;-60
2023/05/09 12:51:24;;;;;;;11.30;1.73;;;15.80;99.90;;;;;;4839065;29;20041;-60
2023/05/09 12:53:52;;;;;;;9.70;2.00;;;15.90;99.90;;;;;;4838152;29;20049;-62
2023/05/09 12:56:24;;;;;;;7.07;1.58;;;16.40;99.90;;;;;;4835909;29;20050;-61
2023/05/09 12:58:55;;;;;;;10.98;1.75;;;16.90;99.90;;;;;;4833958;29;20049;-62
2023/05/09 13:01:27;;;;;;;9.98;1.92;;;18.10;99.90;;;;;;4821962;29;20062;-62
2023/05/09 13:04:04;;;;;;;7.55;1.48;;;18.80;99.90;;;;;;4839310;29;20057;-62
2023/05/09 13:06:34;;;;;;;7.15;1.55;;;18.80;99.90;;;;;;4839633;29;20350;-61
2023/05/09 13:09:05;;;;;;;8.25;1.77;;;19.20;99.90;;;;;;4839658;29;20049;-62
2023/05/09 13:11:34;;;;;;;;;;;19.40;99.90;;;;;;4840275;29;20049;-62